Mc Donough, Georgia
Current Conditions -  °F | °C
As of 7:10 AM on Monday 24 Nov 2014 (Local Time) from K6A2 Reporting Station
Broken Clouds Broken Clouds  
Wind Chill: 16°   Ceiling: 1700
Heat Index: 16°   Visibility: 10mi
Dew Point: 15°   Wind: 6mph
Humidity: 94%   Direction: 210°SSW
Pressure: 29.8"   Gusts: NA
Location:  33.4528°N, 84.1842°W
Report Text: K6A2 241210Z AUTO 21005KT 10SM BKN017 16/15 A2980 RMK AO2
Loading
Personal Weather Stations






























Interactive Weather Map New forecast layout! Learn more

10-Day Weather Forecast

Advertisements
Track Severe Weather on mobile